sensor_id;sensor_type;location;lat;lon;timestamp;pressure;altitude;pressure_sealevel;temperature
72278;BMP280;61204;49.980;8.358;2023-08-06T00:00:56;99528.88;;;15.27
72278;BMP280;61204;49.980;8.358;2023-08-06T00:03:22;99520.31;;;15.39
72278;BMP280;61204;49.980;8.358;2023-08-06T00:05:47;99521.28;;;15.48
72278;BMP280;61204;49.980;8.358;2023-08-06T00:08:13;99522.84;;;15.53
72278;BMP280;61204;49.980;8.358;2023-08-06T00:10:39;99520.28;;;15.59
72278;BMP280;61204;49.980;8.358;2023-08-06T00:13:06;99511.69;;;15.70
72278;BMP280;61204;49.980;8.358;2023-08-06T00:15:31;99517.91;;;15.71
72278;BMP280;61204;49.980;8.358;2023-08-06T00:17:57;99512.78;;;15.83
72278;BMP280;61204;49.980;8.358;2023-08-06T00:20:22;99517.72;;;15.87
72278;BMP280;61204;49.980;8.358;2023-08-06T00:22:48;99504.59;;;15.87
72278;BMP280;61204;49.980;8.358;2023-08-06T00:25:13;99505.19;;;15.84
72278;BMP280;61204;49.980;8.358;2023-08-06T00:27:39;99501.66;;;15.81
72278;BMP280;61204;49.980;8.358;2023-08-06T00:30:05;99497.75;;;15.88
72278;BMP280;61204;49.980;8.358;2023-08-06T00:32:31;99497.00;;;15.88
72278;BMP280;61204;49.980;8.358;2023-08-06T00:34:59;99494.97;;;15.88
72278;BMP280;61204;49.980;8.358;2023-08-06T00:37:24;99493.09;;;15.95
72278;BMP280;61204;49.980;8.358;2023-08-06T00:39:50;99494.44;;;15.94
72278;BMP280;61204;49.980;8.358;2023-08-06T00:42:16;99487.63;;;15.97
72278;BMP280;61204;49.980;8.358;2023-08-06T00:44:46;99482.38;;;15.83
72278;BMP280;61204;49.980;8.358;2023-08-06T00:47:14;99477.53;;;15.84
72278;BMP280;61204;49.980;8.358;2023-08-06T00:49:41;99482.91;;;15.78
72278;BMP280;61204;49.980;8.358;2023-08-06T00:52:07;99474.63;;;15.78
72278;BMP280;61204;49.980;8.358;2023-08-06T00:54:34;99476.59;;;15.75
72278;BMP280;61204;49.980;8.358;2023-08-06T00:57:01;99471.06;;;15.75
72278;BMP280;61204;49.980;8.358;2023-08-06T00:59:29;99469.00;;;15.75
72278;BMP280;61204;49.980;8.358;2023-08-06T01:01:56;99468.94;;;15.73
72278;BMP280;61204;49.980;8.358;2023-08-06T01:04:24;99461.50;;;15.78
72278;BMP280;61204;49.980;8.358;2023-08-06T01:07:06;99464.94;;;15.79
72278;BMP280;61204;49.980;8.358;2023-08-06T01:12:56;99456.91;;;15.87
72278;BMP280;61204;49.980;8.358;2023-08-06T01:15:41;99457.72;;;15.91
72278;BMP280;61204;49.980;8.358;2023-08-06T01:18:14;99454.78;;;15.85
72278;BMP280;61204;49.980;8.358;2023-08-06T01:20:43;99445.41;;;15.94
72278;BMP280;61204;49.980;8.358;2023-08-06T01:23:09;99447.91;;;15.86
72278;BMP280;61204;49.980;8.358;2023-08-06T01:31:48;99445.63;;;16.02
72278;BMP280;61204;49.980;8.358;2023-08-06T01:34:21;99441.94;;;15.94
72278;BMP280;61204;49.980;8.358;2023-08-06T01:36:50;99443.03;;;15.85
72278;BMP280;61204;49.980;8.358;2023-08-06T01:39:16;99444.13;;;15.75
72278;BMP280;61204;49.980;8.358;2023-08-06T01:41:45;99437.13;;;15.72
72278;BMP280;61204;49.980;8.358;2023-08-06T01:44:12;99437.69;;;15.69
72278;BMP280;61204;49.980;8.358;2023-08-06T01:46:38;99436.50;;;15.74
72278;BMP280;61204;49.980;8.358;2023-08-06T01:49:04;99422.03;;;15.75
72278;BMP280;61204;49.980;8.358;2023-08-06T01:51:31;99442.66;;;15.72
72278;BMP280;61204;49.980;8.358;2023-08-06T01:53:57;99437.38;;;15.81
72278;BMP280;61204;49.980;8.358;2023-08-06T01:56:22;99442.78;;;15.77
72278;BMP280;61204;49.980;8.358;2023-08-06T01:58:48;99437.88;;;15.73
72278;BMP280;61204;49.980;8.358;2023-08-06T02:01:13;99425.31;;;15.70
72278;BMP280;61204;49.980;8.358;2023-08-06T02:03:39;99424.50;;;15.65
72278;BMP280;61204;49.980;8.358;2023-08-06T02:06:07;99419.38;;;15.56
72278;BMP280;61204;49.980;8.358;2023-08-06T02:08:35;99426.16;;;15.53
72278;BMP280;61204;49.980;8.358;2023-08-06T02:11:04;99418.50;;;15.51
72278;BMP280;61204;49.980;8.358;2023-08-06T02:13:30;99410.69;;;15.43
72278;BMP280;61204;49.980;8.358;2023-08-06T02:15:56;99411.84;;;15.58
72278;BMP280;61204;49.980;8.358;2023-08-06T02:18:21;99409.03;;;15.56
72278;BMP280;61204;49.980;8.358;2023-08-06T02:20:56;99404.13;;;15.55
72278;BMP280;61204;49.980;8.358;2023-08-06T02:23:28;99404.38;;;15.41
72278;BMP280;61204;49.980;8.358;2023-08-06T02:26:03;99394.03;;;15.41
72278;BMP280;61204;49.980;8.358;2023-08-06T02:28:31;99380.50;;;15.50
72278;BMP280;61204;49.980;8.358;2023-08-06T02:30:57;99386.91;;;15.56
72278;BMP280;61204;49.980;8.358;2023-08-06T02:33:23;99383.38;;;15.54
72278;BMP280;61204;49.980;8.358;2023-08-06T02:35:49;99383.25;;;15.50
72278;BMP280;61204;49.980;8.358;2023-08-06T02:38:17;99380.56;;;15.52
72278;BMP280;61204;49.980;8.358;2023-08-06T02:40:46;99379.41;;;15.59
72278;BMP280;61204;49.980;8.358;2023-08-06T02:43:14;99380.69;;;15.56
72278;BMP280;61204;49.980;8.358;2023-08-06T02:45:42;99376.03;;;15.62
72278;BMP280;61204;49.980;8.358;2023-08-06T02:48:09;99367.06;;;15.62
72278;BMP280;61204;49.980;8.358;2023-08-06T02:50:39;99370.47;;;15.60
72278;BMP280;61204;49.980;8.358;2023-08-06T02:53:09;99366.41;;;15.63
72278;BMP280;61204;49.980;8.358;2023-08-06T02:55:35;99362.28;;;15.64
72278;BMP280;61204;49.980;8.358;2023-08-06T02:58:01;99363.59;;;15.61
72278;BMP280;61204;49.980;8.358;2023-08-06T03:00:27;99357.41;;;15.63
72278;BMP280;61204;49.980;8.358;2023-08-06T03:02:53;99353.19;;;15.60
72278;BMP280;61204;49.980;8.358;2023-08-06T03:05:19;99354.53;;;15.59
72278;BMP280;61204;49.980;8.358;2023-08-06T03:07:45;99353.81;;;15.58
72278;BMP280;61204;49.980;8.358;2023-08-06T03:10:10;99347.75;;;15.62
72278;BMP280;61204;49.980;8.358;2023-08-06T03:12:38;99342.94;;;15.64
72278;BMP280;61204;49.980;8.358;2023-08-06T03:15:07;99349.25;;;15.67
72278;BMP280;61204;49.980;8.358;2023-08-06T03:17:35;99351.47;;;15.72
72278;BMP280;61204;49.980;8.358;2023-08-06T03:20:01;99350.78;;;15.72
72278;BMP280;61204;49.980;8.358;2023-08-06T03:22:27;99354.19;;;15.70
72278;BMP280;61204;49.980;8.358;2023-08-06T03:24:55;99355.44;;;15.65
72278;BMP280;61204;49.980;8.358;2023-08-06T03:27:20;99353.88;;;15.60
72278;BMP280;61204;49.980;8.358;2023-08-06T03:29:49;99347.56;;;15.58
72278;BMP280;61204;49.980;8.358;2023-08-06T03:32:20;99354.44;;;15.57
72278;BMP280;61204;49.980;8.358;2023-08-06T03:34:50;99356.41;;;15.52
72278;BMP280;61204;49.980;8.358;2023-08-06T03:37:18;99350.34;;;15.58
72278;BMP280;61204;49.980;8.358;2023-08-06T03:39:44;99356.66;;;15.60
72278;BMP280;61204;49.980;8.358;2023-08-06T03:42:11;99358.06;;;15.61
72278;BMP280;61204;49.980;8.358;2023-08-06T03:44:37;99363.41;;;15.55
72278;BMP280;61204;49.980;8.358;2023-08-06T03:47:02;99364.03;;;15.54
72278;BMP280;61204;49.980;8.358;2023-08-06T03:49:28;99355.84;;;15.56
72278;BMP280;61204;49.980;8.358;2023-08-06T03:51:56;99356.41;;;15.52
72278;BMP280;61204;49.980;8.358;2023-08-06T03:54:21;99358.50;;;15.54
72278;BMP280;61204;49.980;8.358;2023-08-06T03:56:47;99359.94;;;15.55
72278;BMP280;61204;49.980;8.358;2023-08-06T03:59:12;99363.41;;;15.55
72278;BMP280;61204;49.980;8.358;2023-08-06T04:01:38;99367.59;;;15.56
72278;BMP280;61204;49.980;8.358;2023-08-06T04:04:03;99372.41;;;15.56
72278;BMP280;61204;49.980;8.358;2023-08-06T04:06:29;99363.41;;;15.55
72278;BMP280;61204;49.980;8.358;2023-08-06T04:08:55;99378.75;;;15.60
72278;BMP280;61204;49.980;8.358;2023-08-06T04:11:20;99371.09;;;15.59
72278;BMP280;61204;49.980;8.358;2023-08-06T04:13:48;99374.56;;;15.59
72278;BMP280;61204;49.980;8.358;2023-08-06T04:16:13;99365.38;;;15.53
72278;BMP280;61204;49.980;8.358;2023-08-06T04:18:42;99371.88;;;15.61
72278;BMP280;61204;49.980;8.358;2023-08-06T04:21:07;99365.47;;;15.55
72278;BMP280;61204;49.980;8.358;2023-08-06T04:23:35;99356.41;;;15.52
72278;BMP280;61204;49.980;8.358;2023-08-06T04:26:00;99364.16;;;15.58
72278;BMP280;61204;49.980;8.358;2023-08-06T04:28:26;99378.81;;;15.62
72278;BMP280;61204;49.980;8.358;2023-08-06T04:30:52;99368.25;;;15.57
72278;BMP280;61204;49.980;8.358;2023-08-06T04:33:19;99367.38;;;15.50
72278;BMP280;61204;49.980;8.358;2023-08-06T04:35:47;99363.88;;;15.48
72278;BMP280;61204;49.980;8.358;2023-08-06T04:38:12;99358.22;;;15.43
72278;BMP280;61204;49.980;8.358;2023-08-06T04:40:38;99349.09;;;15.39
72278;BMP280;61204;49.980;8.358;2023-08-06T04:43:04;99351.09;;;15.36
72278;BMP280;61204;49.980;8.358;2023-08-06T04:45:29;99348.34;;;15.36
72278;BMP280;61204;49.980;8.358;2023-08-06T04:47:55;99344.97;;;15.40
72278;BMP280;61204;49.980;8.358;2023-08-06T04:50:20;99335.09;;;15.33
72278;BMP280;61204;49.980;8.358;2023-08-06T04:52:46;99338.19;;;15.43
72278;BMP280;61204;49.980;8.358;2023-08-06T04:55:11;99341.56;;;15.41
72278;BMP280;61204;49.980;8.358;2023-08-06T04:57:37;99334.69;;;15.42
72278;BMP280;61204;49.980;8.358;2023-08-06T05:00:03;99337.53;;;15.44
72278;BMP280;61204;49.980;8.358;2023-08-06T05:02:30;99339.34;;;15.36
72278;BMP280;61204;49.980;8.358;2023-08-06T05:04:58;99328.28;;;15.36
72278;BMP280;61204;49.980;8.358;2023-08-06T05:07:23;99323.25;;;15.28
72278;BMP280;61204;49.980;8.358;2023-08-06T05:09:49;99319.06;;;15.27
72278;BMP280;61204;49.980;8.358;2023-08-06T05:12:14;99316.50;;;15.33
72278;BMP280;61204;49.980;8.358;2023-08-06T05:14:40;99320.72;;;15.36
72278;BMP280;61204;49.980;8.358;2023-08-06T05:17:06;99310.44;;;15.39
72278;BMP280;61204;49.980;8.358;2023-08-06T05:19:31;99306.97;;;15.38
72278;BMP280;61204;49.980;8.358;2023-08-06T05:22:00;99312.75;;;15.47
72278;BMP280;61204;49.980;8.358;2023-08-06T05:24:27;99312.59;;;15.42
72278;BMP280;61204;49.980;8.358;2023-08-06T05:26:53;99307.22;;;15.47
72278;BMP280;61204;49.980;8.358;2023-08-06T05:29:18;99306.03;;;15.54
72278;BMP280;61204;49.980;8.358;2023-08-06T05:31:44;99318.69;;;15.61
72278;BMP280;61204;49.980;8.358;2023-08-06T05:34:10;99321.44;;;15.61
72278;BMP280;61204;49.980;8.358;2023-08-06T05:36:35;99318.19;;;15.68
72278;BMP280;61204;49.980;8.358;2023-08-06T05:39:03;99328.53;;;15.68
72278;BMP280;61204;49.980;8.358;2023-08-06T05:41:29;99332.72;;;15.69
72278;BMP280;61204;49.980;8.358;2023-08-06T05:43:54;99336.19;;;15.69
72278;BMP280;61204;49.980;8.358;2023-08-06T05:46:20;99333.44;;;15.69
72278;BMP280;61204;49.980;8.358;2023-08-06T05:48:46;99329.50;;;15.77
72278;BMP280;61204;49.980;8.358;2023-08-06T05:51:11;99324.81;;;15.81
72278;BMP280;61204;49.980;8.358;2023-08-06T05:53:38;99345.75;;;15.90
72278;BMP280;61204;49.980;8.358;2023-08-06T05:56:04;99348.22;;;15.80
72278;BMP280;61204;49.980;8.358;2023-08-06T05:58:29;99349.72;;;15.83
72278;BMP280;61204;49.980;8.358;2023-08-06T06:00:56;99341.31;;;15.79
72278;BMP280;61204;49.980;8.358;2023-08-06T06:03:22;99342.84;;;15.84
72278;BMP280;61204;49.980;8.358;2023-08-06T06:05:47;99342.13;;;15.84
72278;BMP280;61204;49.980;8.358;2023-08-06T06:08:13;99355.72;;;15.75
72278;BMP280;61204;49.980;8.358;2023-08-06T06:10:38;99345.00;;;15.64
72278;BMP280;61204;49.980;8.358;2023-08-06T06:13:04;99342.22;;;15.62
72278;BMP280;61204;49.980;8.358;2023-08-06T06:15:29;99334.53;;;15.60
72278;BMP280;61204;49.980;8.358;2023-08-06T06:17:55;99334.09;;;15.46
72278;BMP280;61204;49.980;8.358;2023-08-06T06:20:21;99341.19;;;15.51
72278;BMP280;61204;49.980;8.358;2023-08-06T06:22:49;99334.06;;;15.44
72278;BMP280;61204;49.980;8.358;2023-08-06T06:25:17;99335.72;;;15.31
72278;BMP280;61204;49.980;8.358;2023-08-06T06:27:43;99346.06;;;15.31
72278;BMP280;61204;49.980;8.358;2023-08-06T06:30:09;99332.91;;;15.29
72278;BMP280;61204;49.980;8.358;2023-08-06T06:32:37;99336.47;;;15.32
72278;BMP280;61204;49.980;8.358;2023-08-06T06:35:05;99334.22;;;15.26
72278;BMP280;61204;49.980;8.358;2023-08-06T06:37:31;99336.97;;;15.26
72278;BMP280;61204;49.980;8.358;2023-08-06T06:39:56;99337.56;;;15.23
72278;BMP280;61204;49.980;8.358;2023-08-06T06:42:22;99337.50;;;15.21
72278;BMP280;61204;49.980;8.358;2023-08-06T06:44:50;99329.94;;;15.23
72278;BMP280;61204;49.980;8.358;2023-08-06T06:47:16;99332.78;;;15.25
72278;BMP280;61204;49.980;8.358;2023-08-06T06:49:43;99331.56;;;15.30
72278;BMP280;61204;49.980;8.358;2023-08-06T06:52:09;99329.25;;;15.44
72278;BMP280;61204;49.980;8.358;2023-08-06T06:54:37;99330.28;;;15.33
72278;BMP280;61204;49.980;8.358;2023-08-06T06:57:05;99329.97;;;15.45
72278;BMP280;61204;49.980;8.358;2023-08-06T06:59:33;99333.03;;;15.55
72278;BMP280;61204;49.980;8.358;2023-08-06T07:01:59;99337.50;;;15.66
72278;BMP280;61204;49.980;8.358;2023-08-06T07:04:24;99339.94;;;15.80
72278;BMP280;61204;49.980;8.358;2023-08-06T07:06:50;99347.72;;;15.86
72278;BMP280;61204;49.980;8.358;2023-08-06T07:09:17;99339.72;;;15.96
72278;BMP280;61204;49.980;8.358;2023-08-06T07:11:42;99343.09;;;15.92
72278;BMP280;61204;49.980;8.358;2023-08-06T07:14:09;99347.91;;;15.92
72278;BMP280;61204;49.980;8.358;2023-08-06T07:16:34;99347.72;;;15.86
72278;BMP280;61204;49.980;8.358;2023-08-06T07:19:00;99355.34;;;15.87
72278;BMP280;61204;49.980;8.358;2023-08-06T07:21:25;99353.84;;;15.82
72278;BMP280;61204;49.980;8.358;2023-08-06T07:23:51;99352.19;;;15.97
72278;BMP280;61204;49.980;8.358;2023-08-06T07:26:17;99354.59;;;16.09
72278;BMP280;61204;49.980;8.358;2023-08-06T07:28:43;99358.59;;;16.29
72278;BMP280;61204;49.980;8.358;2023-08-06T07:31:10;99366.34;;;16.61
72278;BMP280;61204;49.980;8.358;2023-08-06T07:33:36;99371.91;;;16.89
72278;BMP280;61204;49.980;8.358;2023-08-06T07:36:12;99374.75;;;17.21
72278;BMP280;61204;49.980;8.358;2023-08-06T07:38:40;99389.16;;;16.87
72278;BMP280;61204;49.980;8.358;2023-08-06T07:41:08;99406.66;;;16.94
72278;BMP280;61204;49.980;8.358;2023-08-06T07:43:34;99401.00;;;16.90
72278;BMP280;61204;49.980;8.358;2023-08-06T07:46:01;99410.34;;;17.05
72278;BMP280;61204;49.980;8.358;2023-08-06T07:48:29;99413.34;;;17.43
72278;BMP280;61204;49.980;8.358;2023-08-06T07:50:56;99407.56;;;17.97
72278;BMP280;61204;49.980;8.358;2023-08-06T07:53:23;99419.56;;;18.41
72278;BMP280;61204;49.980;8.358;2023-08-06T07:55:54;99427.31;;;18.49
72278;BMP280;61204;49.980;8.358;2023-08-06T07:58:21;99433.44;;;18.82
72278;BMP280;61204;49.980;8.358;2023-08-06T08:00:48;99437.63;;;18.83
72278;BMP280;61204;49.980;8.358;2023-08-06T08:03:14;99441.63;;;19.14
72278;BMP280;61204;49.980;8.358;2023-08-06T08:05:43;99450.81;;;19.26
72278;BMP280;61204;49.980;8.358;2023-08-06T08:08:09;99463.53;;;18.95
72278;BMP280;61204;49.980;8.358;2023-08-06T08:10:35;99442.19;;;19.08
72278;BMP280;61204;49.980;8.358;2023-08-06T08:13:03;99443.91;;;19.25
72278;BMP280;61204;49.980;8.358;2023-08-06T08:15:30;99444.34;;;19.12
72278;BMP280;61204;49.980;8.358;2023-08-06T08:17:57;99444.97;;;19.06
72278;BMP280;61204;49.980;8.358;2023-08-06T08:20:24;99443.06;;;19.19
72278;BMP280;61204;49.980;8.358;2023-08-06T08:22:50;99462.63;;;18.83
72278;BMP280;61204;49.980;8.358;2023-08-06T08:25:16;99446.03;;;19.29
72278;BMP280;61204;49.980;8.358;2023-08-06T08:27:42;99462.28;;;19.49
72278;BMP280;61204;49.980;8.358;2023-08-06T08:30:08;99446.66;;;19.27
72278;BMP280;61204;49.980;8.358;2023-08-06T08:32:34;99430.06;;;18.47
72278;BMP280;61204;49.980;8.358;2023-08-06T08:34:59;99436.50;;;18.22
72278;BMP280;61204;49.980;8.358;2023-08-06T08:37:25;99432.31;;;18.19
72278;BMP280;61204;49.980;8.358;2023-08-06T08:39:50;99439.31;;;18.62
72278;BMP280;61204;49.980;8.358;2023-08-06T08:42:17;99442.13;;;19.02
72278;BMP280;61204;49.980;8.358;2023-08-06T08:44:44;99436.34;;;18.90
72278;BMP280;61204;49.980;8.358;2023-08-06T08:47:11;99439.63;;;18.78
72278;BMP280;61204;49.980;8.358;2023-08-06T08:49:38;99444.03;;;19.35
72278;BMP280;61204;49.980;8.358;2023-08-06T08:52:06;99442.66;;;19.87
72278;BMP280;61204;49.980;8.358;2023-08-06T08:54:38;99452.78;;;20.18
72278;BMP280;61204;49.980;8.358;2023-08-06T08:57:05;99453.38;;;20.11
72278;BMP280;61204;49.980;8.358;2023-08-06T08:59:33;99449.56;;;19.84
72278;BMP280;61204;49.980;8.358;2023-08-06T09:02:00;99433.56;;;19.32
72278;BMP280;61204;49.980;8.358;2023-08-06T09:04:29;99430.31;;;19.03
72278;BMP280;61204;49.980;8.358;2023-08-06T09:06:58;99436.19;;;18.80
72278;BMP280;61204;49.980;8.358;2023-08-06T09:09:31;99434.44;;;18.98
72278;BMP280;61204;49.980;8.358;2023-08-06T09:12:07;99435.19;;;18.61
72278;BMP280;61204;49.980;8.358;2023-08-06T09:14:39;99431.41;;;18.84
72278;BMP280;61204;49.980;8.358;2023-08-06T09:17:08;99442.31;;;18.36
72278;BMP280;61204;49.980;8.358;2023-08-06T09:19:36;99440.13;;;17.96
72278;BMP280;61204;49.980;8.358;2023-08-06T09:22:02;99429.84;;;18.01
72278;BMP280;61204;49.980;8.358;2023-08-06T09:24:28;99426.16;;;17.90
72278;BMP280;61204;49.980;8.358;2023-08-06T09:26:54;99397.88;;;17.04
72278;BMP280;61204;49.980;8.358;2023-08-06T09:29:23;99371.28;;;16.92
72278;BMP280;61204;49.980;8.358;2023-08-06T09:31:50;99366.72;;;16.75
72278;BMP280;61204;49.980;8.358;2023-08-06T09:34:22;99365.91;;;16.99
72278;BMP280;61204;49.980;8.358;2023-08-06T09:36:49;99380.19;;;17.17
72278;BMP280;61204;49.980;8.358;2023-08-06T09:39:25;99381.25;;;17.34
72278;BMP280;61204;49.980;8.358;2023-08-06T09:41:57;99381.72;;;17.54
72278;BMP280;61204;49.980;8.358;2023-08-06T09:44:29;99395.19;;;18.02
72278;BMP280;61204;49.980;8.358;2023-08-06T09:47:01;99399.78;;;18.25
72278;BMP280;61204;49.980;8.358;2023-08-06T09:52:00;99420.72;;;18.30
72278;BMP280;61204;49.980;8.358;2023-08-06T09:54:27;99414.50;;;18.32
72278;BMP280;61204;49.980;8.358;2023-08-06T09:56:56;99427.81;;;18.39
72278;BMP280;61204;49.980;8.358;2023-08-06T09:59:23;99422.25;;;18.37
72278;BMP280;61204;49.980;8.358;2023-08-06T10:01:49;99421.69;;;18.45
72278;BMP280;61204;49.980;8.358;2023-08-06T10:04:16;99430.78;;;18.13
72278;BMP280;61204;49.980;8.358;2023-08-06T10:06:43;99426.16;;;17.90
72278;BMP280;61204;49.980;8.358;2023-08-06T10:09:15;99419.94;;;18.26
72278;BMP280;61204;49.980;8.358;2023-08-06T10:11:50;99433.50;;;18.46
72278;BMP280;61204;49.980;8.358;2023-08-06T10:14:35;99447.72;;;18.64
72278;BMP280;61204;49.980;8.358;2023-08-06T10:17:09;99456.84;;;18.70
72278;BMP280;61204;49.980;8.358;2023-08-06T10:19:35;99456.66;;;18.98
72278;BMP280;61204;49.980;8.358;2023-08-06T10:24:54;99463.19;;;19.63
72278;BMP280;61204;49.980;8.358;2023-08-06T10:30:46;99468.56;;;20.60
72278;BMP280;61204;49.980;8.358;2023-08-06T10:33:13;99476.63;;;21.08
72278;BMP280;61204;49.980;8.358;2023-08-06T10:35:46;99480.16;;;20.38
72278;BMP280;61204;49.980;8.358;2023-08-06T10:38:19;99472.59;;;19.90
72278;BMP280;61204;49.980;8.358;2023-08-06T10:41:01;99474.88;;;20.04
72278;BMP280;61204;49.980;8.358;2023-08-06T10:43:35;99465.88;;;20.08
72278;BMP280;61204;49.980;8.358;2023-08-06T10:46:11;99466.69;;;20.87
72278;BMP280;61204;49.980;8.358;2023-08-06T10:48:52;99486.63;;;20.61
72278;BMP280;61204;49.980;8.358;2023-08-06T10:51:18;99484.53;;;19.99
72278;BMP280;61204;49.980;8.358;2023-08-06T10:53:48;99487.63;;;19.71
72278;BMP280;61204;49.980;8.358;2023-08-06T10:56:22;99466.44;;;19.03
72278;BMP280;61204;49.980;8.358;2023-08-06T10:58:51;99470.22;;;18.44
72278;BMP280;61204;49.980;8.358;2023-08-06T11:01:21;99446.25;;;17.91
72278;BMP280;61204;49.980;8.358;2023-08-06T11:03:51;99440.19;;;17.98
72278;BMP280;61204;49.980;8.358;2023-08-06T11:06:19;99439.63;;;18.04
72278;BMP280;61204;49.980;8.358;2023-08-06T11:08:50;99456.34;;;18.08
72278;BMP280;61204;49.980;8.358;2023-08-06T11:11:19;99474.75;;;17.93
72278;BMP280;61204;49.980;8.358;2023-08-06T11:13:49;99478.66;;;17.82
72278;BMP280;61204;49.980;8.358;2023-08-06T11:16:22;99499.03;;;17.65
72278;BMP280;61204;49.980;8.358;2023-08-06T11:18:52;99489.66;;;17.78
72278;BMP280;61204;49.980;8.358;2023-08-06T11:21:25;99505.53;;;17.75
72278;BMP280;61204;49.980;8.358;2023-08-06T11:23:51;99497.63;;;17.64
72278;BMP280;61204;49.980;8.358;2023-08-06T11:26:21;99484.88;;;16.95
72278;BMP280;61204;49.980;8.358;2023-08-06T11:28:49;99493.44;;;16.79
72278;BMP280;61204;49.980;8.358;2023-08-06T11:31:24;99492.28;;;16.62
72278;BMP280;61204;49.980;8.358;2023-08-06T11:33:50;99457.31;;;16.49
72278;BMP280;61204;49.980;8.358;2023-08-06T11:36:36;99483.94;;;16.36
72278;BMP280;61204;49.980;8.358;2023-08-06T11:39:08;99489.47;;;16.36
72278;BMP280;61204;49.980;8.358;2023-08-06T11:41:36;99503.13;;;16.30
72278;BMP280;61204;49.980;8.358;2023-08-06T11:44:05;99477.81;;;16.40
72278;BMP280;61204;49.980;8.358;2023-08-06T11:46:53;99515.31;;;16.45
72278;BMP280;61204;49.980;8.358;2023-08-06T11:52:29;99536.19;;;16.50
72278;BMP280;61204;49.980;8.358;2023-08-06T11:55:03;99564.47;;;16.46
72278;BMP280;61204;49.980;8.358;2023-08-06T11:57:38;99547.91;;;16.48
72278;BMP280;61204;49.980;8.358;2023-08-06T12:00:13;99562.84;;;16.39
72278;BMP280;61204;49.980;8.358;2023-08-06T12:02:43;99541.50;;;16.42
72278;BMP280;61204;49.980;8.358;2023-08-06T12:07:52;99552.31;;;16.33
72278;BMP280;61204;49.980;8.358;2023-08-06T12:10:24;99567.72;;;16.41
72278;BMP280;61204;49.980;8.358;2023-08-06T12:12:52;99559.34;;;16.60
72278;BMP280;61204;49.980;8.358;2023-08-06T12:15:18;99579.13;;;16.75
72278;BMP280;61204;49.980;8.358;2023-08-06T12:17:44;99578.09;;;16.88
72278;BMP280;61204;49.980;8.358;2023-08-06T12:20:10;99580.28;;;17.17
72278;BMP280;61204;49.980;8.358;2023-08-06T12:22:37;99592.06;;;17.18
72278;BMP280;61204;49.980;8.358;2023-08-06T12:25:06;99591.88;;;17.36
72278;BMP280;61204;49.980;8.358;2023-08-06T12:27:37;99603.44;;;17.28
72278;BMP280;61204;49.980;8.358;2023-08-06T12:30:05;99615.13;;;17.52
72278;BMP280;61204;49.980;8.358;2023-08-06T12:32:33;99612.25;;;17.48
72278;BMP280;61204;49.980;8.358;2023-08-06T12:34:59;99609.13;;;17.34
72278;BMP280;61204;49.980;8.358;2023-08-06T12:37:26;99627.19;;;17.11
72278;BMP280;61204;49.980;8.358;2023-08-06T12:39:52;99615.13;;;17.01
72278;BMP280;61204;49.980;8.358;2023-08-06T12:42:18;99635.44;;;16.85
72278;BMP280;61204;49.980;8.358;2023-08-06T12:44:44;99629.81;;;16.57
72278;BMP280;61204;49.980;8.358;2023-08-06T12:47:10;99639.16;;;16.46
72278;BMP280;61204;49.980;8.358;2023-08-06T12:49:36;99635.59;;;16.44
72278;BMP280;61204;49.980;8.358;2023-08-06T12:52:02;99642.72;;;16.27
72278;BMP280;61204;49.980;8.358;2023-08-06T12:54:31;99643.84;;;16.20
72278;BMP280;61204;49.980;8.358;2023-08-06T12:57:01;99640.69;;;16.08
72278;BMP280;61204;49.980;8.358;2023-08-06T12:59:28;99647.41;;;16.00
72278;BMP280;61204;49.980;8.358;2023-08-06T13:01:56;99640.72;;;15.88
72278;BMP280;61204;49.980;8.358;2023-08-06T13:04:22;99632.88;;;15.80
72278;BMP280;61204;49.980;8.358;2023-08-06T13:06:47;99647.19;;;15.74
72278;BMP280;61204;49.980;8.358;2023-08-06T13:09:13;99637.38;;;15.69
72278;BMP280;61204;49.980;8.358;2023-08-06T13:11:43;99648.34;;;15.67
72278;BMP280;61204;49.980;8.358;2023-08-06T13:14:14;99663.53;;;15.66
72278;BMP280;61204;49.980;8.358;2023-08-06T13:16:43;99673.41;;;15.73
72278;BMP280;61204;49.980;8.358;2023-08-06T13:19:09;99676.88;;;15.74
72278;BMP280;61204;49.980;8.358;2023-08-06T13:21:59;99674.19;;;15.76
72278;BMP280;61204;49.980;8.358;2023-08-06T13:24:29;99686.94;;;15.85
72278;BMP280;61204;49.980;8.358;2023-08-06T13:26:55;99677.88;;;15.83
72278;BMP280;61204;49.980;8.358;2023-08-06T13:29:20;99685.00;;;15.90
72278;BMP280;61204;49.980;8.358;2023-08-06T13:31:46;99684.50;;;15.95
72278;BMP280;61204;49.980;8.358;2023-08-06T13:34:12;99691.09;;;16.06
72278;BMP280;61204;49.980;8.358;2023-08-06T13:36:37;99707.34;;;16.16
72278;BMP280;61204;49.980;8.358;2023-08-06T13:39:05;99701.34;;;16.23
72278;BMP280;61204;49.980;8.358;2023-08-06T13:41:31;99682.31;;;16.33
72278;BMP280;61204;49.980;8.358;2023-08-06T13:43:57;99715.25;;;16.47
72278;BMP280;61204;49.980;8.358;2023-08-06T13:46:22;99722.47;;;16.56
72278;BMP280;61204;49.980;8.358;2023-08-06T13:48:48;99720.13;;;16.71
72278;BMP280;61204;49.980;8.358;2023-08-06T13:51:19;99736.41;;;16.82
72278;BMP280;61204;49.980;8.358;2023-08-06T13:53:45;99740.59;;;16.83
72278;BMP280;61204;49.980;8.358;2023-08-06T13:56:11;99738.44;;;16.80
72278;BMP280;61204;49.980;8.358;2023-08-06T13:58:37;99748.81;;;16.81
72278;BMP280;61204;49.980;8.358;2023-08-06T14:01:04;99744.59;;;16.78
72278;BMP280;61204;49.980;8.358;2023-08-06T14:03:29;99740.63;;;16.85
72278;BMP280;61204;49.980;8.358;2023-08-06T14:05:55;99744.41;;;16.94
72278;BMP280;61204;49.980;8.358;2023-08-06T14:08:22;99753.41;;;16.95
72278;BMP280;61204;49.980;8.358;2023-08-06T14:10:54;99750.38;;;16.86
72278;BMP280;61204;49.980;8.358;2023-08-06T14:13:22;99767.06;;;16.88
72278;BMP280;61204;49.980;8.358;2023-08-06T14:15:48;99767.97;;;16.95
72278;BMP280;61204;49.980;8.358;2023-08-06T14:18:14;99770.72;;;16.95
72278;BMP280;61204;49.980;8.358;2023-08-06T14:20:43;99754.03;;;16.93
72278;BMP280;61204;49.980;8.358;2023-08-06T14:23:09;99760.22;;;16.91
72278;BMP280;61204;49.980;8.358;2023-08-06T14:25:35;99774.84;;;16.94
72278;BMP280;61204;49.980;8.358;2023-08-06T14:28:02;99768.84;;;17.02
72278;BMP280;61204;49.980;8.358;2023-08-06T14:30:34;99762.00;;;17.05
72278;BMP280;61204;49.980;8.358;2023-08-06T14:33:00;99775.78;;;17.03
72278;BMP280;61204;49.980;8.358;2023-08-06T14:35:26;99771.34;;;17.15